Time;durP1;ratioP1;P1;durP2;ratioP2;P2;SDS_P1;SDS_P2;PMS_P1;PMS_P2;Temp;Humidity;BMP_temperature;BMP_pressure;BME280_temperature;BME280_humidity;BME280_pressure;Samples;Min_cycle;Max_cycle;Signal;HPM_P1;HPM_P2
2021/12/03 00:01:30;;;;;;;9.98;5.00;;;;;;;;;;5003607;28;20057;-66
2021/12/03 00:03:58;;;;;;;7.82;4.13;;;;;;;;;;5000493;28;20093;-66
2021/12/03 00:06:25;;;;;;;7.05;4.57;;;;;;;;;;4999133;28;20046;-67
2021/12/03 00:08:53;;;;;;;9.95;4.25;;;;;;;;;;4999003;28;20412;-65
2021/12/03 00:11:20;;;;;;;7.70;4.13;;;;;;;;;;5003307;28;20053;-67
2021/12/03 00:13:47;;;;;;;8.50;4.70;;;;;;;;;;5002805;28;20060;-67
2021/12/03 00:16:14;;;;;;;6.22;4.32;;;;;;;;;;4996161;28;20058;-67
2021/12/03 00:18:41;;;;;;;8.57;5.35;;;;;;;;;;4999622;28;20085;-67
2021/12/03 00:21:11;;;;;;;13.27;5.15;;;;;;;;;;5002535;28;20133;-66
2021/12/03 00:23:38;;;;;;;10.05;5.25;;;;;;;;;;4999771;28;20061;-67
2021/12/03 00:26:07;;;;;;;8.23;5.00;;;;;;;;;;5004911;28;20043;-67
2021/12/03 00:28:34;;;;;;;10.48;5.05;;;;;;;;;;4999832;28;20049;-67
2021/12/03 00:31:02;;;;;;;11.13;5.68;;;;;;;;;;4996142;28;20054;-67
2021/12/03 00:33:31;;;;;;;9.68;5.32;;;;;;;;;;4998373;28;20460;-67
2021/12/03 00:36:03;;;;;;;11.98;6.13;;;;;;;;;;4998831;28;20050;-66
2021/12/03 00:38:35;;;;;;;8.70;5.82;;;;;;;;;;4996340;28;20126;-67
2021/12/03 00:41:05;;;;;;;9.63;5.20;;;;;;;;;;4994816;28;20440;-67
2021/12/03 00:43:32;;;;;;;11.05;6.45;;;;;;;;;;5002551;28;20049;-67
2021/12/03 00:46:05;;;;;;;7.32;5.38;;;;;;;;;;5007518;28;20051;-67
2021/12/03 00:48:33;;;;;;;10.38;5.82;;;;;;;;;;5001718;28;20513;-67
2021/12/03 00:51:00;;;;;;;10.05;6.07;;;;;;;;;;5007324;28;20118;-67
2021/12/03 00:53:27;;;;;;;11.73;6.60;;;;;;;;;;4999776;28;20054;-67
2021/12/03 00:55:54;;;;;;;9.75;6.15;;;;;;;;;;4995230;28;20073;-67
2021/12/03 00:58:21;;;;;;;10.40;5.80;;;;;;;;;;5000635;28;20521;-67
2021/12/03 01:00:49;;;;;;;10.63;5.53;;;;;;;;;;4994761;28;20057;-67
2021/12/03 01:03:17;;;;;;;13.07;5.75;;;;;;;;;;5000455;28;20103;-67
2021/12/03 01:05:44;;;;;;;8.52;5.95;;;;;;;;;;5003161;28;20057;-66
2021/12/03 01:08:11;;;;;;;10.98;6.18;;;;;;;;;;5004421;28;20493;-67
2021/12/03 01:10:38;;;;;;;13.95;6.97;;;;;;;;;;4998264;28;20416;-66
2021/12/03 01:13:05;;;;;;;10.77;6.03;;;;;;;;;;5002134;28;20050;-67
2021/12/03 01:15:34;;;;;;;10.05;6.03;;;;;;;;;;5005060;28;20061;-67
2021/12/03 01:18:01;;;;;;;9.50;5.82;;;;;;;;;;5002916;28;20489;-67
2021/12/03 01:20:30;;;;;;;8.88;6.15;;;;;;;;;;5003096;28;20076;-66
2021/12/03 01:22:58;;;;;;;8.80;5.68;;;;;;;;;;5003159;28;20100;-67
2021/12/03 01:25:25;;;;;;;10.75;5.63;;;;;;;;;;5008412;28;20049;-66
2021/12/03 01:27:53;;;;;;;10.15;5.75;;;;;;;;;;5001902;28;20046;-67
2021/12/03 01:30:22;;;;;;;8.32;5.28;;;;;;;;;;5001281;28;20142;-67
2021/12/03 01:32:53;;;;;;;9.70;5.82;;;;;;;;;;5007308;28;20512;-67
2021/12/03 01:35:20;;;;;;;8.00;5.53;;;;;;;;;;5000611;28;20057;-67
2021/12/03 01:37:48;;;;;;;8.45;5.45;;;;;;;;;;5005243;28;20057;-67
2021/12/03 01:40:17;;;;;;;9.20;5.82;;;;;;;;;;5005406;28;20061;-66
2021/12/03 01:42:45;;;;;;;10.73;5.10;;;;;;;;;;4993837;28;20050;-67
2021/12/03 01:45:21;;;;;;;10.45;5.38;;;;;;;;;;4997779;28;20050;-66
2021/12/03 01:47:48;;;;;;;8.27;4.78;;;;;;;;;;4993722;28;20057;-66
2021/12/03 01:50:16;;;;;;;9.13;4.70;;;;;;;;;;4996849;28;20456;-66
2021/12/03 01:52:44;;;;;;;6.97;4.63;;;;;;;;;;4996031;28;20054;-67
2021/12/03 01:55:13;;;;;;;8.25;4.97;;;;;;;;;;5005555;28;20093;-67
2021/12/03 01:57:40;;;;;;;8.10;5.78;;;;;;;;;;4999892;28;20054;-67
2021/12/03 02:00:14;;;;;;;7.63;5.18;;;;;;;;;;5004075;28;20050;-67
2021/12/03 02:02:41;;;;;;;9.07;5.18;;;;;;;;;;5003236;28;20050;-65
2021/12/03 02:05:09;;;;;;;8.02;5.22;;;;;;;;;;5002645;28;20046;-67
2021/12/03 02:07:36;;;;;;;10.00;5.72;;;;;;;;;;5010131;28;20049;-67
2021/12/03 02:10:04;;;;;;;7.10;5.63;;;;;;;;;;5000644;28;20050;-67
2021/12/03 02:12:31;;;;;;;11.98;5.97;;;;;;;;;;5000555;28;20085;-67
2021/12/03 02:18:45;;;;;;;8.48;5.50;;;;;;;;;;5002427;28;20080;-67
2021/12/03 02:21:13;;;;;;;9.75;6.25;;;;;;;;;;5011825;28;20054;-67
2021/12/03 02:23:40;;;;;;;9.30;5.95;;;;;;;;;;5013561;28;20061;-67
2021/12/03 02:26:07;;;;;;;7.60;5.85;;;;;;;;;;4999292;28;20050;-67
2021/12/03 02:28:38;;;;;;;9.40;5.55;;;;;;;;;;4994113;28;20054;-67
2021/12/03 02:31:04;;;;;;;8.65;5.80;;;;;;;;;;4993928;28;20046;-66
2021/12/03 02:33:32;;;;;;;12.52;6.60;;;;;;;;;;4994560;28;20058;-67
2021/12/03 02:35:59;;;;;;;11.57;6.05;;;;;;;;;;4995256;28;20054;-67
2021/12/03 02:38:26;;;;;;;8.73;5.55;;;;;;;;;;4994190;28;20461;-67
2021/12/03 02:40:54;;;;;;;11.15;5.80;;;;;;;;;;4994156;28;20050;-66
2021/12/03 02:43:21;;;;;;;8.25;5.38;;;;;;;;;;4993859;28;20498;-66
2021/12/03 02:45:50;;;;;;;10.63;6.28;;;;;;;;;;4993809;28;20100;-67
2021/12/03 02:48:18;;;;;;;10.23;6.50;;;;;;;;;;4993920;28;20181;-67
2021/12/03 02:50:46;;;;;;;10.80;5.85;;;;;;;;;;4994816;28;20085;-68
2021/12/03 02:53:13;;;;;;;8.90;5.72;;;;;;;;;;5001356;28;20050;-67
2021/12/03 02:55:40;;;;;;;13.40;6.78;;;;;;;;;;5000488;28;20077;-67
2021/12/03 02:58:06;;;;;;;11.45;6.72;;;;;;;;;;5000116;28;20077;-67
2021/12/03 03:00:34;;;;;;;8.70;6.13;;;;;;;;;;5000173;28;20046;-66
2021/12/03 03:03:00;;;;;;;9.70;6.85;;;;;;;;;;5016363;28;20049;-67
2021/12/03 03:05:27;;;;;;;13.88;7.30;;;;;;;;;;5019996;28;20058;-67
2021/12/03 03:07:55;;;;;;;10.73;6.45;;;;;;;;;;5019817;28;20062;-68
2021/12/03 03:10:27;;;;;;;13.88;7.10;;;;;;;;;;5019657;28;20104;-67
2021/12/03 03:12:54;;;;;;;12.88;7.55;;;;;;;;;;5019722;28;20654;-67
2021/12/03 03:15:21;;;;;;;15.65;9.10;;;;;;;;;;5017662;28;20054;-67
2021/12/03 03:17:48;;;;;;;15.52;8.23;;;;;;;;;;5018336;28;20104;-67
2021/12/03 03:20:16;;;;;;;9.00;5.80;;;;;;;;;;5015961;28;20567;-67
2021/12/03 03:22:43;;;;;;;10.43;6.53;;;;;;;;;;5012880;28;20050;-66
2021/12/03 03:25:13;;;;;;;16.48;8.10;;;;;;;;;;5012909;28;20100;-66
2021/12/03 03:27:40;;;;;;;12.32;7.30;;;;;;;;;;5012612;28;20066;-65
2021/12/03 03:30:11;;;;;;;10.07;6.55;;;;;;;;;;5002533;28;20082;-66
2021/12/03 03:32:38;;;;;;;12.18;7.03;;;;;;;;;;4992937;28;20104;-67
2021/12/03 03:35:05;;;;;;;10.48;6.75;;;;;;;;;;4992882;28;20130;-66
2021/12/03 03:37:31;;;;;;;11.23;6.95;;;;;;;;;;4992994;28;20058;-67
2021/12/03 03:39:58;;;;;;;11.73;6.85;;;;;;;;;;4992940;28;20112;-67
2021/12/03 03:42:25;;;;;;;8.18;6.22;;;;;;;;;;4992941;28;20055;-66
2021/12/03 03:44:51;;;;;;;8.55;6.13;;;;;;;;;;4992746;28;20050;-67
2021/12/03 03:47:18;;;;;;;13.95;7.15;;;;;;;;;;4992977;28;20464;-68
2021/12/03 03:49:44;;;;;;;10.80;6.63;;;;;;;;;;4992713;28;20054;-66
2021/12/03 03:52:11;;;;;;;10.45;6.95;;;;;;;;;;4992717;28;20075;-66
2021/12/03 03:54:37;;;;;;;11.45;6.88;;;;;;;;;;4993151;28;20505;-66
2021/12/03 03:57:04;;;;;;;12.43;6.82;;;;;;;;;;4992784;28;20457;-66
2021/12/03 03:59:31;;;;;;;12.70;7.25;;;;;;;;;;4992519;28;20113;-66
2021/12/03 04:01:57;;;;;;;9.43;6.38;;;;;;;;;;4992417;28;20058;-66
2021/12/03 04:04:25;;;;;;;12.95;8.18;;;;;;;;;;4992772;28;20065;-66
2021/12/03 04:06:53;;;;;;;10.02;6.68;;;;;;;;;;4992723;28;20054;-66
2021/12/03 04:09:20;;;;;;;13.10;6.60;;;;;;;;;;4992148;28;20073;-66
2021/12/03 04:11:46;;;;;;;10.63;6.78;;;;;;;;;;4992389;28;20081;-66
2021/12/03 04:14:13;;;;;;;12.93;6.43;;;;;;;;;;4992629;28;20203;-66
2021/12/03 04:16:40;;;;;;;13.20;7.10;;;;;;;;;;4992434;28;20050;-66
2021/12/03 04:19:06;;;;;;;8.75;6.40;;;;;;;;;;4992505;28;20101;-66
2021/12/03 04:21:33;;;;;;;11.85;6.63;;;;;;;;;;4992506;28;20125;-66
2021/12/03 04:24:00;;;;;;;15.25;7.47;;;;;;;;;;4992355;28;20117;-65
2021/12/03 04:26:26;;;;;;;12.77;6.45;;;;;;;;;;5006955;28;20099;-66
2021/12/03 04:28:53;;;;;;;11.25;7.10;;;;;;;;;;5011928;28;20050;-66
2021/12/03 04:31:19;;;;;;;8.45;6.40;;;;;;;;;;5012160;28;20054;-66
2021/12/03 04:33:46;;;;;;;11.18;6.93;;;;;;;;;;5011853;28;20460;-66
2021/12/03 04:36:13;;;;;;;9.82;7.00;;;;;;;;;;5012036;28;20049;-66
2021/12/03 04:38:39;;;;;;;11.52;6.70;;;;;;;;;;5009085;28;20089;-66
2021/12/03 04:41:06;;;;;;;11.15;6.90;;;;;;;;;;4992146;28;20046;-67
2021/12/03 04:43:33;;;;;;;8.82;6.38;;;;;;;;;;4992231;28;20070;-66
2021/12/03 04:45:59;;;;;;;11.70;7.30;;;;;;;;;;5004807;28;20128;-66
2021/12/03 04:48:26;;;;;;;9.20;6.40;;;;;;;;;;5011837;28;20133;-66
2021/12/03 04:50:53;;;;;;;11.05;7.45;;;;;;;;;;5011573;28;20108;-65
2021/12/03 04:53:19;;;;;;;9.25;5.75;;;;;;;;;;5011751;28;20045;-66
2021/12/03 04:55:47;;;;;;;10.52;6.45;;;;;;;;;;5011490;28;20555;-65
2021/12/03 04:58:14;;;;;;;8.85;6.30;;;;;;;;;;5011744;28;20085;-66
2021/12/03 05:00:55;;;;;;;12.63;7.00;;;;;;;;;;5011389;28;20050;-66
2021/12/03 05:03:25;;;;;;;9.13;6.40;;;;;;;;;;5011567;28;20398;-66
2021/12/03 05:05:55;;;;;;;10.55;6.82;;;;;;;;;;5010952;28;20058;-66
2021/12/03 05:08:23;;;;;;;8.50;6.53;;;;;;;;;;5011525;28;20054;-66
2021/12/03 05:10:51;;;;;;;9.10;6.10;;;;;;;;;;5011135;28;20402;-66
2021/12/03 05:13:23;;;;;;;9.00;6.10;;;;;;;;;;5011373;28;20049;-66
2021/12/03 05:15:50;;;;;;;11.60;6.78;;;;;;;;;;5011298;28;20104;-66
2021/12/03 05:18:19;;;;;;;9.77;6.85;;;;;;;;;;5011560;28;20085;-66
2021/12/03 05:20:48;;;;;;;7.93;6.10;;;;;;;;;;5013209;28;20092;-65
2021/12/03 05:23:14;;;;;;;11.50;6.25;;;;;;;;;;5013209;28;20429;-65
2021/12/03 05:25:42;;;;;;;10.75;6.18;;;;;;;;;;5014475;28;20049;-65
2021/12/03 05:28:09;;;;;;;10.82;7.20;;;;;;;;;;5014070;28;20054;-66
2021/12/03 05:30:36;;;;;;;8.55;6.65;;;;;;;;;;5014681;28;20050;-66
2021/12/03 05:33:06;;;;;;;9.30;6.30;;;;;;;;;;5014738;28;20061;-66
2021/12/03 05:35:33;;;;;;;11.30;6.13;;;;;;;;;;4995566;28;20054;-65
2021/12/03 05:38:02;;;;;;;11.85;6.85;;;;;;;;;;4995184;28;20072;-65
2021/12/03 05:40:29;;;;;;;7.65;6.18;;;;;;;;;;4995168;28;20046;-66
2021/12/03 05:42:56;;;;;;;8.20;5.97;;;;;;;;;;4994936;28;20050;-65
2021/12/03 05:45:28;;;;;;;10.18;6.30;;;;;;;;;;4995176;28;20050;-66
2021/12/03 05:47:55;;;;;;;8.57;6.05;;;;;;;;;;4994885;28;20068;-66
2021/12/03 05:50:22;;;;;;;9.02;6.72;;;;;;;;;;4994894;28;20046;-66
2021/12/03 05:52:50;;;;;;;13.10;7.07;;;;;;;;;;4993574;28;20058;-66
2021/12/03 05:55:16;;;;;;;15.32;9.50;;;;;;;;;;4995004;28;20054;-66
2021/12/03 05:57:44;;;;;;;11.75;7.25;;;;;;;;;;4994687;28;20046;-66
2021/12/03 06:00:14;;;;;;;12.70;7.32;;;;;;;;;;4994646;28;20456;-67
2021/12/03 06:02:41;;;;;;;9.90;7.13;;;;;;;;;;4994677;28;20054;-65
2021/12/03 06:05:08;;;;;;;10.10;6.78;;;;;;;;;;4994787;28;20142;-65
2021/12/03 06:07:35;;;;;;;10.43;6.43;;;;;;;;;;4994543;28;20058;-66
2021/12/03 06:10:02;;;;;;;12.05;7.07;;;;;;;;;;4994341;28;20085;-65
2021/12/03 06:12:29;;;;;;;10.15;7.32;;;;;;;;;;5005524;28;20058;-67
2021/12/03 06:14:56;;;;;;;12.98;7.85;;;;;;;;;;5014123;28;20108;-66
2021/12/03 06:17:22;;;;;;;11.90;7.45;;;;;;;;;;5014024;28;20057;-67
2021/12/03 06:19:49;;;;;;;12.70;8.63;;;;;;;;;;5010575;28;20046;-66
2021/12/03 06:22:15;;;;;;;11.93;7.20;;;;;;;;;;5012568;28;20077;-65
2021/12/03 06:24:42;;;;;;;14.50;8.07;;;;;;;;;;5012450;28;20053;-65
2021/12/03 06:27:09;;;;;;;24.10;12.38;;;;;;;;;;5013805;28;20049;-65
2021/12/03 06:29:35;;;;;;;24.90;12.95;;;;;;;;;;5013398;28;20050;-66
2021/12/03 06:32:09;;;;;;;17.17;11.10;;;;;;;;;;5013062;28;20053;-65
2021/12/03 06:34:39;;;;;;;14.73;8.73;;;;;;;;;;5013571;28;20092;-67
2021/12/03 06:37:05;;;;;;;11.07;7.38;;;;;;;;;;5013666;28;20065;-65
2021/12/03 06:39:32;;;;;;;12.60;7.72;;;;;;;;;;5013414;28;20104;-65
2021/12/03 06:41:59;;;;;;;9.30;6.88;;;;;;;;;;4999586;28;20046;-67
2021/12/03 06:44:26;;;;;;;9.82;6.18;;;;;;;;;;5002359;28;20060;-65
2021/12/03 06:46:53;;;;;;;9.90;7.22;;;;;;;;;;4995968;28;20563;-66
2021/12/03 06:49:21;;;;;;;8.57;6.20;;;;;;;;;;5000381;28;20042;-65
2021/12/03 06:51:50;;;;;;;9.23;6.43;;;;;;;;;;4996835;28;20046;-65
2021/12/03 06:54:25;;;;;;;11.77;7.82;;;;;;;;;;5002806;28;20051;-65
2021/12/03 06:56:53;;;;;;;9.65;6.10;;;;;;;;;;4994578;28;20054;-66
2021/12/03 06:59:21;;;;;;;10.65;6.85;;;;;;;;;;4997325;28;20061;-65
2021/12/03 07:01:49;;;;;;;7.93;6.45;;;;;;;;;;4998223;28;20141;-65
2021/12/03 07:04:16;;;;;;;8.95;5.72;;;;;;;;;;4999919;28;20078;-65
2021/12/03 07:06:43;;;;;;;7.93;5.50;;;;;;;;;;4998057;28;20062;-65
2021/12/03 07:09:11;;;;;;;10.30;5.72;;;;;;;;;;4995484;28;20051;-65
2021/12/03 07:11:38;;;;;;;7.85;5.13;;;;;;;;;;4999398;28;20457;-65
2021/12/03 07:14:05;;;;;;;8.75;5.80;;;;;;;;;;5000163;28;20053;-66
2021/12/03 07:16:32;;;;;;;8.30;5.30;;;;;;;;;;4990290;28;20506;-65
2021/12/03 07:18:59;;;;;;;6.25;4.93;;;;;;;;;;4995077;28;20112;-65
2021/12/03 07:21:26;;;;;;;7.70;4.50;;;;;;;;;;5000279;28;20049;-65
2021/12/03 07:23:53;;;;;;;9.77;5.85;;;;;;;;;;4995272;28;20078;-65
2021/12/03 07:26:23;;;;;;;8.15;5.15;;;;;;;;;;4997247;28;20054;-64
2021/12/03 07:28:52;;;;;;;11.90;6.32;;;;;;;;;;5000644;28;20053;-64
2021/12/03 07:31:19;;;;;;;13.70;7.32;;;;;;;;;;4995443;28;20500;-64
2021/12/03 07:33:47;;;;;;;25.38;12.43;;;;;;;;;;5000868;28;20050;-63
2021/12/03 07:36:14;;;;;;;8.13;5.57;;;;;;;;;;4998896;28;20046;-63
2021/12/03 07:38:41;;;;;;;9.15;5.35;;;;;;;;;;5001121;28;20050;-63
2021/12/03 07:41:08;;;;;;;9.02;5.45;;;;;;;;;;4999801;28;20054;-64
2021/12/03 07:43:35;;;;;;;8.15;5.50;;;;;;;;;;4999581;28;20058;-65
2021/12/03 07:46:02;;;;;;;8.20;4.88;;;;;;;;;;5001241;28;20049;-64
2021/12/03 07:48:29;;;;;;;9.48;5.47;;;;;;;;;;4991786;28;20125;-64
2021/12/03 07:50:57;;;;;;;9.05;5.90;;;;;;;;;;4991409;28;20049;-66
2021/12/03 07:53:25;;;;;;;13.18;7.03;;;;;;;;;;5000929;28;20505;-66
2021/12/03 07:55:53;;;;;;;16.88;7.25;;;;;;;;;;4997955;28;20054;-64
2021/12/03 07:58:21;;;;;;;15.48;7.43;;;;;;;;;;4999444;28;20050;-63
2021/12/03 08:00:49;;;;;;;13.05;7.05;;;;;;;;;;4997530;28;20181;-64
2021/12/03 08:03:16;;;;;;;18.67;8.32;;;;;;;;;;4998541;28;20050;-63
2021/12/03 08:05:44;;;;;;;23.25;9.23;;;;;;;;;;5000834;28;20149;-63
2021/12/03 08:08:11;;;;;;;19.13;8.93;;;;;;;;;;4996831;28;20054;-64
2021/12/03 08:10:39;;;;;;;16.48;8.40;;;;;;;;;;5002183;28;20064;-64
2021/12/03 08:13:06;;;;;;;13.80;7.65;;;;;;;;;;4995887;28;20125;-63
2021/12/03 08:15:37;;;;;;;13.38;6.57;;;;;;;;;;4991596;28;20448;-64
2021/12/03 08:18:07;;;;;;;13.25;5.95;;;;;;;;;;4994283;28;20086;-63
2021/12/03 08:20:34;;;;;;;17.35;7.55;;;;;;;;;;4999155;28;20046;-64
2021/12/03 08:23:02;;;;;;;9.52;5.72;;;;;;;;;;4997141;28;20077;-65
2021/12/03 08:25:29;;;;;;;8.18;5.18;;;;;;;;;;5001131;28;20069;-65
2021/12/03 08:27:56;;;;;;;8.82;5.90;;;;;;;;;;5000530;28;20058;-66
2021/12/03 08:30:28;;;;;;;6.72;4.70;;;;;;;;;;5002787;28;20053;-65
2021/12/03 08:32:56;;;;;;;5.47;4.30;;;;;;;;;;4997571;28;20105;-65
2021/12/03 08:35:24;;;;;;;4.55;3.42;;;;;;;;;;4990604;28;20054;-69
2021/12/03 08:37:52;;;;;;;6.22;4.05;;;;;;;;;;4998282;28;20485;-70
2021/12/03 08:40:20;;;;;;;7.32;3.97;;;;;;;;;;4998485;28;20057;-68
2021/12/03 08:42:48;;;;;;;6.70;4.18;;;;;;;;;;4998418;28;20046;-68
2021/12/03 08:45:17;;;;;;;7.45;4.55;;;;;;;;;;4998896;28;20045;-68
2021/12/03 08:47:48;;;;;;;6.13;4.40;;;;;;;;;;5000457;28;20488;-66
2021/12/03 08:50:26;;;;;;;5.75;4.13;;;;;;;;;;4999582;28;20049;-68
2021/12/03 08:55:41;;;;;;;4.70;3.83;;;;;;;;;;5002781;28;20054;-68
2021/12/03 08:58:10;;;;;;;8.65;3.85;;;;;;;;;;4995118;28;20555;-66
2021/12/03 09:00:38;;;;;;;5.20;3.42;;;;;;;;;;4994325;28;20042;-66
2021/12/03 09:03:06;;;;;;;6.65;3.80;;;;;;;;;;4999041;28;20050;-65
2021/12/03 09:05:36;;;;;;;7.55;3.85;;;;;;;;;;5002914;28;20061;-62
2021/12/03 09:08:04;;;;;;;4.55;3.10;;;;;;;;;;5003848;28;20042;-69
2021/12/03 09:10:37;;;;;;;5.57;3.30;;;;;;;;;;5004331;28;20046;-68
2021/12/03 09:13:04;;;;;;;3.88;3.08;;;;;;;;;;5003008;28;20054;-62
2021/12/03 09:15:46;;;;;;;4.00;2.72;;;;;;;;;;5001648;28;20057;-63
2021/12/03 09:21:25;;;;;;;6.90;3.70;;;;;;;;;;5004676;28;20051;-62
2021/12/03 09:26:26;;;;;;;5.15;2.40;;;;;;;;;;5002580;28;20120;-62
2021/12/03 09:29:01;;;;;;;4.07;3.03;;;;;;;;;;5003930;28;20057;-61
2021/12/03 09:31:28;;;;;;;6.15;2.40;;;;;;;;;;4998378;28;20050;-63
2021/12/03 09:33:57;;;;;;;6.22;2.65;;;;;;;;;;5004025;28;20046;-62
2021/12/03 09:36:24;;;;;;;2.50;2.10;;;;;;;;;;5004297;28;20509;-62
2021/12/03 09:38:51;;;;;;;4.75;2.90;;;;;;;;;;5001560;28;20479;-63
2021/12/03 09:41:20;;;;;;;3.53;2.28;;;;;;;;;;5001572;28;20497;-63
2021/12/03 09:43:50;;;;;;;4.18;2.53;;;;;;;;;;5000808;28;20053;-62
2021/12/03 09:46:27;;;;;;;5.55;2.10;;;;;;;;;;5002796;28;20062;-63
2021/12/03 09:51:33;;;;;;;6.47;2.60;;;;;;;;;;4993923;28;20046;-62
2021/12/03 09:56:45;;;;;;;3.05;1.50;;;;;;;;;;5001776;28;20422;-66
2021/12/03 10:08:39;;;;;;;3.17;1.40;;;;;;;;;;4998006;28;20042;-65
2021/12/03 10:18:08;;;;;;;2.42;1.80;;;;;;;;;;4998431;28;20057;-65
2021/12/03 10:32:18;;;;;;;11.00;5.20;;;;;;;;;;4998423;28;20141;-65
2021/12/03 10:40:56;;;;;;;5.30;2.60;;;;;;;;;;4998304;28;20058;-64
2021/12/03 10:46:20;;;;;;;3.45;2.33;;;;;;;;;;4997841;28;20047;-64
2021/12/03 10:57:21;;;;;;;3.28;1.85;;;;;;;;;;4992642;28;20069;-68
2021/12/03 11:14:56;;;;;;;4.82;2.20;;;;;;;;;;5004402;28;20544;-67
2021/12/03 11:29:58;;;;;;;7.70;2.42;;;;;;;;;;4999812;28;20058;-66
2021/12/03 12:10:50;;;;;;;4.55;2.50;;;;;;;;;;4997797;28;20050;-67
2021/12/03 13:20:29;;;;;;;3.72;2.30;;;;;;;;;;4967378;28;20462;-65
2021/12/03 13:23:16;;;;;;;4.32;1.92;;;;;;;;;;5003372;28;20077;-67
2021/12/03 13:29:13;;;;;;;7.50;2.40;;;;;;;;;;5003714;28;20050;-67
2021/12/03 13:35:22;;;;;;;3.20;1.90;;;;;;;;;;5001515;28;20505;-67
2021/12/03 13:59:27;;;;;;;3.45;1.80;;;;;;;;;;4999490;28;20050;-67
2021/12/03 14:10:10;;;;;;;3.80;1.55;;;;;;;;;;4997791;28;20046;-66
2021/12/03 14:19:09;;;;;;;12.73;8.73;;;;;;;;;;4991587;28;20047;-66
2021/12/03 14:39:58;;;;;;;5.30;1.67;;;;;;;;;;4990425;28;20089;-67
2021/12/03 14:45:14;;;;;;;3.70;1.45;;;;;;;;;;4998976;28;20109;-65
2021/12/03 14:48:06;;;;;;;1.85;1.42;;;;;;;;;;5001467;28;20054;-67
2021/12/03 14:55:36;;;;;;;3.63;1.60;;;;;;;;;;4998011;28;20050;-69
2021/12/03 14:58:12;;;;;;;4.25;1.63;;;;;;;;;;5000296;28;20049;-66
2021/12/03 15:08:36;;;;;;;2.80;1.92;;;;;;;;;;4999175;28;20084;-64
2021/12/03 15:25:27;;;;;;;6.07;2.50;;;;;;;;;;4992570;28;20058;-66
2021/12/03 15:36:18;;;;;;;4.80;2.70;;;;;;;;;;4999758;28;20047;-64
2021/12/03 15:38:54;;;;;;;3.67;3.10;;;;;;;;;;4991644;28;20046;-66
2021/12/03 15:58:01;;;;;;;9.63;3.80;;;;;;;;;;5016895;28;20046;-66
2021/12/03 16:08:35;;;;;;;7.18;3.55;;;;;;;;;;5002228;28;20519;-69
2021/12/03 16:14:27;;;;;;;6.50;3.45;;;;;;;;;;4997290;28;20574;-72
2021/12/03 16:20:05;;;;;;;10.95;5.13;;;;;;;;;;4966351;28;20509;-66
2021/12/03 16:44:25;;;;;;;10.63;5.22;;;;;;;;;;5001433;28;20492;-68
2021/12/03 16:52:05;;;;;;;7.80;4.07;;;;;;;;;;4999171;28;20053;-68
2021/12/03 16:54:55;;;;;;;5.80;3.75;;;;;;;;;;5001287;28;20077;-69
2021/12/03 16:57:29;;;;;;;5.78;3.28;;;;;;;;;;4988112;28;20046;-67
2021/12/03 16:59:59;;;;;;;6.78;4.05;;;;;;;;;;5000382;28;20046;-66
2021/12/03 17:02:40;;;;;;;6.93;3.90;;;;;;;;;;5002857;28;20501;-67
2021/12/03 17:05:26;;;;;;;10.23;3.42;;;;;;;;;;4994861;28;20054;-68
2021/12/03 17:08:27;;;;;;;6.93;6.22;;;;;;;;;;5002052;28;20061;-67
2021/12/03 17:48:13;;;;;;;3.55;2.38;;;;;;;;;;5000896;28;20054;-69
2021/12/03 17:56:14;;;;;;;3.83;2.05;;;;;;;;;;5000618;28;20045;-67
2021/12/03 17:58:44;;;;;;;4.65;2.70;;;;;;;;;;5002196;28;20509;-66
2021/12/03 18:01:19;;;;;;;5.38;2.97;;;;;;;;;;4997504;28;20471;-67
2021/12/03 18:06:43;;;;;;;3.25;2.20;;;;;;;;;;4988182;28;20054;-66
2021/12/03 18:09:36;;;;;;;4.50;1.88;;;;;;;;;;4999110;28;20621;-67
2021/12/03 18:45:01;;;;;;;6.20;2.97;;;;;;;;;;5001205;28;20108;-66
2021/12/03 18:55:39;;;;;;;4.10;2.70;;;;;;;;;;5003737;28;20049;-66
2021/12/03 18:58:05;;;;;;;5.43;2.60;;;;;;;;;;4999020;28;20571;-66
2021/12/03 19:00:41;;;;;;;5.28;2.30;;;;;;;;;;4998046;28;20050;-66
2021/12/03 19:08:46;;;;;;;7.65;3.00;;;;;;;;;;4999152;28;20346;-66
2021/12/03 19:11:21;;;;;;;5.85;3.25;;;;;;;;;;5003165;28;20058;-66
2021/12/03 19:13:48;;;;;;;6.40;3.45;;;;;;;;;;4997651;28;20080;-67
2021/12/03 19:16:17;;;;;;;8.52;3.47;;;;;;;;;;5002002;28;20054;-67
2021/12/03 19:18:45;;;;;;;3.83;2.78;;;;;;;;;;4998888;28;20050;-66
2021/12/03 19:21:16;;;;;;;6.65;3.58;;;;;;;;;;4998940;28;20046;-67
2021/12/03 19:23:46;;;;;;;6.28;3.30;;;;;;;;;;5018881;23;20107;-66
2021/12/03 19:26:13;;;;;;;6.40;3.65;;;;;;;;;;5010268;28;20077;-66
2021/12/03 19:28:40;;;;;;;4.40;2.75;;;;;;;;;;5009816;28;20116;-66
2021/12/03 19:31:07;;;;;;;6.15;3.13;;;;;;;;;;5006109;28;20050;-67
2021/12/03 19:33:36;;;;;;;4.35;2.90;;;;;;;;;;5009636;28;20050;-67
2021/12/03 19:36:06;;;;;;;3.90;2.80;;;;;;;;;;4985580;28;20407;-66
2021/12/03 19:38:37;;;;;;;4.65;3.38;;;;;;;;;;4993102;28;20054;-67
2021/12/03 19:41:18;;;;;;;7.45;3.92;;;;;;;;;;4977852;28;20461;-67
2021/12/03 19:43:52;;;;;;;4.68;3.03;;;;;;;;;;4984544;28;20076;-67
2021/12/03 19:46:31;;;;;;;4.95;3.45;;;;;;;;;;4998605;28;20049;-66
2021/12/03 19:49:19;;;;;;;5.50;4.10;;;;;;;;;;4997664;28;20077;-66
2021/12/03 19:51:54;;;;;;;8.80;4.30;;;;;;;;;;4986085;28;20129;-67
2021/12/03 19:57:02;;;;;;;4.88;3.00;;;;;;;;;;2407276;26;20046;-67
2021/12/03 19:59:40;;;;;;;5.35;2.92;;;;;;;;;;5006893;28;20045;-66
2021/12/03 20:02:10;;;;;;;5.45;2.95;;;;;;;;;;5019232;28;20068;-67
2021/12/03 20:04:39;;;;;;;5.38;3.35;;;;;;;;;;4996393;28;20132;-67
2021/12/03 20:07:07;;;;;;;6.55;3.53;;;;;;;;;;4986259;28;20112;-66
2021/12/03 20:09:41;;;;;;;4.88;3.33;;;;;;;;;;5021346;28;20054;-66
2021/12/03 20:12:13;;;;;;;5.05;2.80;;;;;;;;;;5020709;28;20082;-67
2021/12/03 20:14:47;;;;;;;5.03;2.90;;;;;;;;;;5019834;22;20535;-66
2021/12/03 20:19:47;;;;;;;3.20;2.90;;;;;;;;;;5018830;28;20099;-66
2021/12/03 20:22:25;;;;;;;5.68;3.08;;;;;;;;;;5021777;28;20057;-67
2021/12/03 20:27:28;;;;;;;5.00;3.40;;;;;;;;;;4993374;28;20051;-67
2021/12/03 20:30:01;;;;;;;6.20;3.28;;;;;;;;;;5005178;28;20536;-69
2021/12/03 20:38:00;;;;;;;5.55;3.58;;;;;;;;;;4952787;28;20065;-67
2021/12/03 20:40:30;;;;;;;4.80;2.95;;;;;;;;;;4959536;28;20428;-68
2021/12/03 20:43:10;;;;;;;5.47;2.88;;;;;;;;;;4972001;28;20521;-68
2021/12/03 21:09:32;;;;;;;5.07;2.50;;;;;;;;;;5012364;28;20056;-68
2021/12/03 21:12:02;;;;;;;4.05;3.25;;;;;;;;;;5011071;28;20062;-67
2021/12/03 21:14:31;;;;;;;3.70;2.80;;;;;;;;;;5009806;28;20053;-69
2021/12/03 21:19:47;;;;;;;5.05;2.97;;;;;;;;;;5004056;28;20100;-67
2021/12/03 21:22:20;;;;;;;5.53;3.00;;;;;;;;;;5009919;28;20053;-68
2021/12/03 21:24:50;;;;;;;3.85;2.88;;;;;;;;;;5009952;28;20339;-69
2021/12/03 21:27:21;;;;;;;4.55;2.53;;;;;;;;;;5010528;28;20497;-67
2021/12/03 21:30:13;;;;;;;5.65;3.08;;;;;;;;;;5003999;28;20088;-67
2021/12/03 21:38:44;;;;;;;4.30;2.50;;;;;;;;;;5004610;28;20053;-67
2021/12/03 21:41:20;;;;;;;4.90;3.10;;;;;;;;;;5004464;28;20104;-66
2021/12/03 21:43:48;;;;;;;4.82;3.08;;;;;;;;;;5003418;28;20046;-67
2021/12/03 21:46:16;;;;;;;7.10;3.75;;;;;;;;;;5009545;28;20429;-67
2021/12/03 21:48:43;;;;;;;4.20;3.03;;;;;;;;;;5010204;28;20050;-67
2021/12/03 21:51:10;;;;;;;7.63;2.85;;;;;;;;;;5010433;28;20053;-69
2021/12/03 21:53:36;;;;;;;4.47;2.58;;;;;;;;;;4980244;28;20565;-67
2021/12/03 21:56:03;;;;;;;4.78;3.20;;;;;;;;;;4990107;23;1221634;-65
2021/12/03 21:58:30;;;;;;;3.50;2.53;;;;;;;;;;5028285;28;20103;-65
2021/12/03 22:00:56;;;;;;;3.55;2.45;;;;;;;;;;5023351;28;20078;-65
2021/12/03 22:03:23;;;;;;;3.72;2.30;;;;;;;;;;5031688;28;20052;-65
2021/12/03 22:05:51;;;;;;;3.13;2.05;;;;;;;;;;5033946;28;20500;-65
2021/12/03 22:08:18;;;;;;;2.78;2.20;;;;;;;;;;5034167;28;20046;-65
2021/12/03 22:10:44;;;;;;;5.25;2.75;;;;;;;;;;5034274;28;20054;-65
2021/12/03 22:13:11;;;;;;;5.18;3.10;;;;;;;;;;5033930;28;20057;-66
2021/12/03 22:15:38;;;;;;;6.50;3.28;;;;;;;;;;5025104;28;20046;-66
2021/12/03 22:18:05;;;;;;;3.83;2.08;;;;;;;;;;5013998;28;20492;-65
2021/12/03 22:20:32;;;;;;;4.07;2.42;;;;;;;;;;5014114;28;20058;-65
2021/12/03 22:22:59;;;;;;;3.72;2.78;;;;;;;;;;5013741;28;20053;-66
2021/12/03 22:25:25;;;;;;;6.80;3.28;;;;;;;;;;5013901;28;20120;-65
2021/12/03 22:27:52;;;;;;;3.67;2.78;;;;;;;;;;5013895;28;20108;-65
2021/12/03 22:30:18;;;;;;;3.08;2.20;;;;;;;;;;5013904;28;20085;-65
2021/12/03 22:32:45;;;;;;;3.17;2.38;;;;;;;;;;5013546;28;20100;-66
2021/12/03 22:35:12;;;;;;;4.40;2.25;;;;;;;;;;5013631;28;20106;-65
2021/12/03 22:37:38;;;;;;;2.47;2.22;;;;;;;;;;5013750;28;20086;-65
2021/12/03 22:40:06;;;;;;;5.55;2.00;;;;;;;;;;5013717;28;20108;-65
2021/12/03 22:42:33;;;;;;;4.85;2.42;;;;;;;;;;5013802;28;20159;-65
2021/12/03 22:45:02;;;;;;;3.88;2.35;;;;;;;;;;5013380;28;20551;-65
2021/12/03 22:47:40;;;;;;;2.50;1.75;;;;;;;;;;5029354;28;20100;-65
2021/12/03 22:52:40;;;;;;;3.97;1.90;;;;;;;;;;5033092;28;20054;-65
2021/12/03 22:55:07;;;;;;;3.22;1.90;;;;;;;;;;5033021;28;20103;-65
2021/12/03 22:57:34;;;;;;;5.05;1.90;;;;;;;;;;5033195;28;20049;-65
2021/12/03 23:00:01;;;;;;;2.90;2.20;;;;;;;;;;5025231;28;20080;-65
2021/12/03 23:02:27;;;;;;;3.10;2.28;;;;;;;;;;5013462;28;20471;-65
2021/12/03 23:04:54;;;;;;;2.97;1.98;;;;;;;;;;5012912;28;20092;-65